Orlando, Florida
Traffic Map
Current Weather Conditions
Orlando, Florida
Clear
Clear
36°
Feels Like: 40°
Wind Chill: 36° Ceiling: Unl
Heat Index: 40° Visibility: 10mi
Dew Point: 22° Wind: 6mph
Humidity: 44% Direction: ° ()
Pressure: 30.03in Gusts: 0mph
Raw Report DataKORL 221853Z VRB05KT 10SM CLR 36/22 A3003 RMK AO2 LTG DSNT E AND SE SLP170 T03560217
Traffic Incident Summary
Active as of:
Severity:
Category:
InformationThere was an issue retrieving the traffic information for this location. Please try a different location or try again shortly.
Advertisements
Track Severe Weather on mobile